createdAt,value
2018-03-29T00:02:10.099Z,9.10
2018-03-29T00:04:36.316Z,9.00
2018-03-29T00:07:02.553Z,8.90
2018-03-29T00:09:28.806Z,8.90
2018-03-29T00:11:55.003Z,8.90
2018-03-29T00:14:21.230Z,8.90
2018-03-29T00:16:47.603Z,8.80
2018-03-29T00:19:13.806Z,8.80
2018-03-29T00:21:40.798Z,8.70
2018-03-29T00:24:07.028Z,8.70
2018-03-29T00:26:33.190Z,8.70
2018-03-29T00:28:59.384Z,8.60
2018-03-29T00:31:25.584Z,8.60
2018-03-29T00:33:51.833Z,8.50
2018-03-29T00:36:18.084Z,8.50
2018-03-29T00:38:44.316Z,8.40
2018-03-29T00:41:10.555Z,8.40
2018-03-29T00:43:36.807Z,8.40
2018-03-29T00:46:04.600Z,8.30
2018-03-29T00:48:30.832Z,8.20
2018-03-29T00:50:57.088Z,8.30
2018-03-29T00:53:35.468Z,8.30
2018-03-29T00:56:01.711Z,8.30
2018-03-29T00:58:27.918Z,8.20
2018-03-29T01:00:54.134Z,8.20
2018-03-29T01:03:20.381Z,8.20
2018-03-29T01:05:46.596Z,8.20
2018-03-29T01:08:12.832Z,8.20
2018-03-29T01:10:39.028Z,8.20
2018-03-29T01:13:05.291Z,8.20
2018-03-29T01:15:31.512Z,8.20
2018-03-29T01:17:57.723Z,8.20
2018-03-29T01:20:24.791Z,8.20
2018-03-29T01:22:50.996Z,8.10
2018-03-29T01:25:18.010Z,8.10
2018-03-29T01:27:44.261Z,8.10
2018-03-29T01:30:10.459Z,8.10
2018-03-29T01:32:37.705Z,8.10
2018-03-29T01:35:03.950Z,8.00
2018-03-29T01:37:30.197Z,7.90
2018-03-29T01:39:56.384Z,7.90
2018-03-29T01:42:22.638Z,7.90
2018-03-29T01:44:48.811Z,7.90
2018-03-29T01:47:15.089Z,7.90
2018-03-29T01:49:41.344Z,7.90
2018-03-29T01:52:08.314Z,7.90
2018-03-29T01:54:34.564Z,7.90
2018-03-29T01:57:00.782Z,8.00
2018-03-29T01:59:27.007Z,7.90
2018-03-29T02:01:53.230Z,7.90
2018-03-29T02:04:19.480Z,8.00
2018-03-29T02:06:45.693Z,8.00
2018-03-29T02:09:11.875Z,8.00
2018-03-29T02:11:38.115Z,8.00
2018-03-29T02:14:05.052Z,7.90
2018-03-29T02:16:31.243Z,7.90
2018-03-29T02:18:57.468Z,7.90
2018-03-29T02:21:23.712Z,7.90
2018-03-29T02:23:49.925Z,7.90
2018-03-29T02:26:16.129Z,7.90
2018-03-29T02:28:42.326Z,7.80
2018-03-29T02:31:09.325Z,7.80
2018-03-29T02:33:35.577Z,7.80
2018-03-29T02:36:01.755Z,7.80
2018-03-29T02:38:28.063Z,7.90
2018-03-29T02:40:54.340Z,7.90
2018-03-29T02:43:20.572Z,7.90
2018-03-29T02:45:46.802Z,7.90
2018-03-29T02:48:13.021Z,7.90
2018-03-29T02:50:39.244Z,7.90
2018-03-29T02:53:05.477Z,7.90
2018-03-29T02:55:31.706Z,7.90
2018-03-29T02:57:57.948Z,7.90
2018-03-29T03:00:24.166Z,7.80
2018-03-29T03:02:50.381Z,7.80
2018-03-29T03:05:16.622Z,7.70
2018-03-29T03:07:42.887Z,7.70
2018-03-29T03:10:09.891Z,7.60
2018-03-29T03:12:36.136Z,7.50
2018-03-29T03:15:02.433Z,7.60
2018-03-29T03:17:28.738Z,7.60
2018-03-29T03:19:54.962Z,7.60
2018-03-29T03:22:21.145Z,7.60
2018-03-29T03:24:47.362Z,7.60
2018-03-29T03:27:13.561Z,7.60
2018-03-29T03:29:39.792Z,7.60
2018-03-29T03:32:05.988Z,7.60
2018-03-29T03:34:32.973Z,7.60
2018-03-29T03:36:59.196Z,7.50
2018-03-29T03:39:25.369Z,7.60
2018-03-29T03:41:51.628Z,7.50
2018-03-29T03:44:17.945Z,7.50
2018-03-29T03:46:45.032Z,7.50
2018-03-29T03:49:11.212Z,7.50
2018-03-29T03:51:38.213Z,7.30
2018-03-29T03:54:04.473Z,7.30
2018-03-29T03:56:30.760Z,7.40
2018-03-29T03:58:56.966Z,7.30
2018-03-29T04:01:23.176Z,7.30
2018-03-29T04:03:49.461Z,7.30
2018-03-29T04:06:15.665Z,7.30
2018-03-29T04:08:41.914Z,7.30
2018-03-29T04:11:08.156Z,7.30
2018-03-29T04:13:34.356Z,7.40
2018-03-29T04:16:00.581Z,7.40
2018-03-29T04:18:26.858Z,7.40
2018-03-29T04:20:53.124Z,7.40
2018-03-29T04:23:19.345Z,7.40
2018-03-29T04:25:45.525Z,7.30
2018-03-29T04:28:11.768Z,7.40
2018-03-29T04:30:37.989Z,7.30
2018-03-29T04:33:04.223Z,7.30
2018-03-29T04:35:30.395Z,7.30
2018-03-29T04:37:56.610Z,7.20
2018-03-29T04:40:22.821Z,7.20
2018-03-29T04:42:49.800Z,7.20
2018-03-29T04:45:16.029Z,7.20
2018-03-29T04:47:42.252Z,7.20
2018-03-29T04:50:08.488Z,7.10
2018-03-29T04:52:34.674Z,6.90
2018-03-29T04:55:01.625Z,6.80
2018-03-29T04:57:28.597Z,6.70
2018-03-29T04:59:54.832Z,6.70
2018-03-29T05:02:21.061Z,6.60
2018-03-29T05:04:47.268Z,6.60
2018-03-29T05:07:13.571Z,6.60
2018-03-29T05:09:39.767Z,6.50
2018-03-29T05:12:05.999Z,6.50
2018-03-29T05:14:32.241Z,6.50
2018-03-29T05:16:58.505Z,6.50
2018-03-29T05:19:24.762Z,6.50
2018-03-29T05:21:50.976Z,6.50
2018-03-29T05:24:17.177Z,6.40
2018-03-29T05:26:48.154Z,6.50
2018-03-29T05:29:14.417Z,6.40
2018-03-29T05:31:40.660Z,6.50
2018-03-29T05:34:06.877Z,6.40
2018-03-29T05:36:33.100Z,6.40
2018-03-29T05:38:59.280Z,6.40
2018-03-29T05:41:25.491Z,6.30
2018-03-29T05:43:51.694Z,6.40
2018-03-29T05:46:17.951Z,6.30
2018-03-29T05:48:44.182Z,6.30
2018-03-29T05:51:10.392Z,6.30
2018-03-29T05:53:37.343Z,6.20
2018-03-29T05:56:04.399Z,6.00
2018-03-29T05:58:33.965Z,5.90
2018-03-29T06:01:00.188Z,5.60
2018-03-29T06:03:26.428Z,5.30
2018-03-29T06:05:52.652Z,5.20
2018-03-29T06:08:18.907Z,5.20
2018-03-29T06:10:45.156Z,5.20
2018-03-29T06:13:11.361Z,5.20
2018-03-29T06:15:38.352Z,5.20
2018-03-29T06:18:04.601Z,5.10
2018-03-29T06:20:30.899Z,5.30
2018-03-29T06:22:57.154Z,5.30
2018-03-29T06:25:23.409Z,5.30
2018-03-29T06:27:49.647Z,5.40
2018-03-29T06:30:16.624Z,5.50
2018-03-29T06:32:42.885Z,5.40
2018-03-29T06:35:09.092Z,5.50
2018-03-29T06:37:35.364Z,5.60
2018-03-29T06:40:01.594Z,5.60
2018-03-29T06:42:28.596Z,5.90
2018-03-29T06:44:54.835Z,5.80
2018-03-29T06:47:21.130Z,5.90
2018-03-29T06:49:47.377Z,6.10
2018-03-29T06:52:13.648Z,6.10
2018-03-29T06:54:39.853Z,6.20
2018-03-29T06:57:06.094Z,6.30
2018-03-29T06:59:32.310Z,6.30
2018-03-29T07:01:58.508Z,6.40
2018-03-29T07:04:24.781Z,6.40
2018-03-29T07:06:50.988Z,6.50
2018-03-29T07:09:17.221Z,6.50
2018-03-29T07:11:55.246Z,6.50
2018-03-29T07:14:21.465Z,6.50
2018-03-29T07:16:47.690Z,6.60
2018-03-29T07:19:13.957Z,6.60
2018-03-29T07:21:40.890Z,6.80
2018-03-29T07:24:07.083Z,6.70
2018-03-29T07:26:33.278Z,6.80
2018-03-29T07:28:59.477Z,6.90
2018-03-29T07:31:26.429Z,7.00
2018-03-29T07:33:52.648Z,7.00
2018-03-29T07:36:19.594Z,7.20
2018-03-29T07:38:46.545Z,7.20
2018-03-29T07:41:12.756Z,7.20
2018-03-29T07:43:38.959Z,7.30
2018-03-29T07:46:05.202Z,7.30
2018-03-29T07:48:31.421Z,7.40
2018-03-29T07:50:57.615Z,7.40
2018-03-29T07:53:23.855Z,7.50
2018-03-29T07:55:50.091Z,7.50
2018-03-29T07:58:16.324Z,7.50
2018-03-29T08:00:42.543Z,7.50
2018-03-29T08:03:08.759Z,7.50
2018-03-29T08:05:35.001Z,7.60
2018-03-29T08:08:01.253Z,7.60
2018-03-29T08:13:27.665Z,7.50
2018-03-29T08:15:53.934Z,7.60
2018-03-29T08:18:20.206Z,7.50
2018-03-29T08:20:46.445Z,7.50
2018-03-29T08:23:12.626Z,7.50
2018-03-29T08:25:38.832Z,7.60
2018-03-29T08:28:05.060Z,7.60
2018-03-29T08:30:31.307Z,7.60
2018-03-29T08:32:57.559Z,7.60
2018-03-29T08:35:24.526Z,7.70
2018-03-29T08:37:50.780Z,7.70
2018-03-29T08:40:16.993Z,7.70
2018-03-29T08:42:43.214Z,7.80
2018-03-29T08:45:09.424Z,7.80
2018-03-29T08:47:35.722Z,8.00
2018-03-29T08:50:01.954Z,8.00
2018-03-29T08:52:28.197Z,8.10
2018-03-29T08:54:55.203Z,8.30
2018-03-29T08:57:21.411Z,8.30
2018-03-29T08:59:47.629Z,8.40
2018-03-29T09:02:13.849Z,8.40
2018-03-29T09:04:40.087Z,8.40
2018-03-29T09:07:06.293Z,8.50
2018-03-29T09:09:33.287Z,8.50
2018-03-29T09:11:59.510Z,8.40
2018-03-29T09:14:25.782Z,8.50
2018-03-29T09:16:52.800Z,8.60
2018-03-29T09:19:19.015Z,8.50
2018-03-29T09:21:45.222Z,8.70
2018-03-29T09:24:11.441Z,8.80
2018-03-29T09:26:37.655Z,8.90
2018-03-29T09:29:03.863Z,9.00
2018-03-29T09:31:30.142Z,9.10
2018-03-29T09:33:56.331Z,9.30
2018-03-29T09:36:23.278Z,9.60
2018-03-29T09:38:49.553Z,9.60
2018-03-29T09:41:15.781Z,9.70
2018-03-29T09:43:41.977Z,9.70
2018-03-29T09:46:08.144Z,9.70
2018-03-29T09:48:34.364Z,9.70
2018-03-29T09:51:00.626Z,9.70
2018-03-29T09:53:27.828Z,9.70
2018-03-29T09:55:54.071Z,9.70
2018-03-29T09:58:20.254Z,9.80
2018-03-29T10:00:46.472Z,9.80
2018-03-29T10:03:13.459Z,10.10
2018-03-29T10:05:39.782Z,10.00
2018-03-29T10:08:06.015Z,10.10
2018-03-29T10:10:32.266Z,10.20
2018-03-29T10:12:58.530Z,10.30
2018-03-29T10:15:25.485Z,10.30
2018-03-29T10:17:53.724Z,10.20
2018-03-29T10:20:19.919Z,10.10
2018-03-29T10:22:46.153Z,10.00
2018-03-29T10:25:12.396Z,10.00
2018-03-29T10:27:38.612Z,10.00
2018-03-29T10:30:04.833Z,10.00
2018-03-29T10:32:31.116Z,9.90
2018-03-29T10:34:58.070Z,9.90
2018-03-29T10:37:25.032Z,9.90
2018-03-29T10:39:51.290Z,9.90
2018-03-29T10:42:17.523Z,9.90
2018-03-29T10:44:43.740Z,9.90
2018-03-29T10:47:09.989Z,9.90
2018-03-29T10:49:36.196Z,9.90
2018-03-29T10:52:02.445Z,10.00
2018-03-29T10:54:28.654Z,10.00
2018-03-29T10:56:54.875Z,10.10
2018-03-29T10:59:21.094Z,10.10
2018-03-29T11:01:47.271Z,10.10
2018-03-29T11:04:13.435Z,10.10
2018-03-29T11:06:39.735Z,10.10
2018-03-29T11:38:32.266Z,10.00
2018-03-29T11:40:58.494Z,10.00
2018-03-29T11:43:24.744Z,10.00
2018-03-29T11:45:50.925Z,10.10
2018-03-29T11:48:17.124Z,10.10
2018-03-29T11:50:44.112Z,10.10
2018-03-29T11:53:10.329Z,10.10
2018-03-29T11:55:36.505Z,10.10
2018-03-29T11:58:03.468Z,10.10
2018-03-29T12:00:29.666Z,10.00
2018-03-29T12:02:55.870Z,10.10
2018-03-29T12:05:22.089Z,10.10
2018-03-29T12:10:44.998Z,10.20
2018-03-29T12:13:11.204Z,10.10
2018-03-29T12:15:37.402Z,10.10
2018-03-29T12:18:03.619Z,10.10
2018-03-29T12:20:29.869Z,10.10
2018-03-29T12:22:56.065Z,10.20
2018-03-29T12:25:22.256Z,10.20
2018-03-29T12:27:48.465Z,10.30
2018-03-29T12:30:14.669Z,10.30
2018-03-29T12:32:59.018Z,10.30
2018-03-29T12:35:25.242Z,10.30
2018-03-29T12:37:51.471Z,10.40
2018-03-29T12:40:17.713Z,10.40
2018-03-29T12:42:43.939Z,10.60
2018-03-29T12:45:10.114Z,10.60
2018-03-29T12:47:36.293Z,10.70
2018-03-29T12:50:02.546Z,10.70
2018-03-29T12:52:28.794Z,10.80
2018-03-29T12:55:07.308Z,11.00
2018-03-29T12:57:45.728Z,11.00
2018-03-29T13:00:11.946Z,11.10
2018-03-29T13:02:40.241Z,11.20
2018-03-29T13:05:07.262Z,11.40
2018-03-29T13:07:33.485Z,11.30
2018-03-29T13:09:59.740Z,11.50
2018-03-29T13:12:26.711Z,11.60
2018-03-29T13:14:52.974Z,11.50
2018-03-29T13:17:19.191Z,11.50
2018-03-29T13:19:45.401Z,11.50
2018-03-29T13:22:11.608Z,11.50
2018-03-29T13:24:37.827Z,11.40
2018-03-29T13:27:04.799Z,11.20
2018-03-29T13:29:31.018Z,11.20
2018-03-29T13:31:57.252Z,11.20
2018-03-29T13:34:23.493Z,11.30
2018-03-29T13:36:49.742Z,11.30
2018-03-29T13:39:16.029Z,11.40
2018-03-29T13:41:42.260Z,11.40
2018-03-29T13:44:08.485Z,11.50
2018-03-29T13:46:34.690Z,11.50
2018-03-29T13:49:00.912Z,11.50
2018-03-29T13:51:27.172Z,11.60
2018-03-29T13:53:53.354Z,11.50
2018-03-29T13:56:19.653Z,11.50
2018-03-29T13:58:45.872Z,11.50
2018-03-29T14:01:14.064Z,11.60
2018-03-29T14:03:40.293Z,11.60
2018-03-29T14:06:06.498Z,11.60
2018-03-29T14:08:32.696Z,11.60
2018-03-29T14:10:58.955Z,11.50
2018-03-29T14:13:25.223Z,11.50
2018-03-29T14:15:51.442Z,11.50
2018-03-29T14:18:17.636Z,11.50
2018-03-29T14:20:43.860Z,11.50
2018-03-29T14:23:10.078Z,11.60
2018-03-29T14:25:36.278Z,11.50
2018-03-29T14:28:02.463Z,11.50
2018-03-29T14:30:28.669Z,11.60
2018-03-29T14:32:54.839Z,11.50
2018-03-29T14:35:21.051Z,11.50
2018-03-29T14:37:54.140Z,11.50
2018-03-29T14:40:20.353Z,11.40
2018-03-29T14:42:46.632Z,11.40
2018-03-29T14:45:13.626Z,11.40
2018-03-29T14:47:39.872Z,11.30
2018-03-29T14:50:06.070Z,11.40
2018-03-29T14:52:32.313Z,11.30
2018-03-29T14:54:58.580Z,11.40
2018-03-29T14:57:25.544Z,11.40
2018-03-29T14:59:52.527Z,11.40
2018-03-29T15:02:18.757Z,11.40
2018-03-29T15:04:44.995Z,11.40
2018-03-29T15:07:11.234Z,11.40
2018-03-29T15:09:37.481Z,11.40
2018-03-29T15:12:03.693Z,11.40
2018-03-29T15:14:29.935Z,11.40
2018-03-29T15:16:56.157Z,11.40
2018-03-29T15:19:22.373Z,11.40
2018-03-29T15:21:48.652Z,11.40
2018-03-29T15:24:14.925Z,11.40
2018-03-29T15:26:42.189Z,11.40
2018-03-29T15:29:08.407Z,11.40
2018-03-29T15:31:34.663Z,11.50
2018-03-29T15:34:00.846Z,11.50
2018-03-29T15:36:27.098Z,11.50
2018-03-29T15:38:53.320Z,11.60
2018-03-29T15:41:19.532Z,11.50
2018-03-29T15:43:45.765Z,11.60
2018-03-29T15:46:11.968Z,11.60
2018-03-29T15:48:38.201Z,11.60
2018-03-29T15:51:04.450Z,11.60
2018-03-29T15:53:30.727Z,11.60
2018-03-29T15:55:57.681Z,11.70
2018-03-29T15:58:28.789Z,11.60
2018-03-29T16:00:55.083Z,11.60
2018-03-29T16:03:21.288Z,11.60
2018-03-29T16:05:48.226Z,11.60
2018-03-29T16:08:15.234Z,11.60
2018-03-29T16:10:41.470Z,11.50
2018-03-29T16:13:07.753Z,11.50
2018-03-29T16:15:33.982Z,11.50
2018-03-29T16:18:00.188Z,11.50
2018-03-29T16:20:27.250Z,11.50
2018-03-29T16:22:53.500Z,11.40
2018-03-29T16:25:19.720Z,11.50
2018-03-29T16:27:45.957Z,11.50
2018-03-29T16:30:12.134Z,11.50
2018-03-29T16:32:39.072Z,11.50
2018-03-29T16:35:05.409Z,11.40
2018-03-29T16:37:31.666Z,11.50
2018-03-29T16:39:57.868Z,11.50
2018-03-29T16:42:24.868Z,11.50
2018-03-29T16:44:51.118Z,11.50
2018-03-29T16:47:17.343Z,11.50
2018-03-29T16:49:43.576Z,11.50
2018-03-29T16:52:09.767Z,11.40
2018-03-29T16:54:35.990Z,11.50
2018-03-29T16:57:02.235Z,11.40
2018-03-29T16:59:28.465Z,11.40
2018-03-29T17:01:54.698Z,11.40
2018-03-29T17:04:20.902Z,11.40
2018-03-29T17:06:47.149Z,11.30
2018-03-29T17:09:17.129Z,11.40
2018-03-29T17:11:43.329Z,11.30
2018-03-29T17:14:09.549Z,11.30
2018-03-29T17:16:35.730Z,11.30
2018-03-29T17:19:01.987Z,11.40
2018-03-29T17:21:28.190Z,11.40
2018-03-29T17:23:54.420Z,11.40
2018-03-29T17:26:20.640Z,11.40
2018-03-29T17:28:46.869Z,11.40
2018-03-29T17:31:13.181Z,11.40
2018-03-29T17:33:39.373Z,11.40
2018-03-29T17:36:05.629Z,11.40
2018-03-29T17:38:31.784Z,11.30
2018-03-29T17:40:58.031Z,11.30
2018-03-29T17:43:24.253Z,11.30
2018-03-29T17:45:50.552Z,11.20
2018-03-29T17:48:16.805Z,11.20
2018-03-29T17:50:43.054Z,11.20
2018-03-29T17:53:09.289Z,11.20
2018-03-29T17:55:35.530Z,11.10
2018-03-29T17:58:01.773Z,11.10
2018-03-29T18:00:47.211Z,11.00
2018-03-29T18:03:13.452Z,10.90
2018-03-29T18:05:39.681Z,11.00
2018-03-29T18:08:05.906Z,10.90
2018-03-29T18:10:32.150Z,10.70
2018-03-29T18:12:58.385Z,10.50
2018-03-29T18:15:24.560Z,10.40
2018-03-29T18:17:50.811Z,10.40
2018-03-29T18:20:17.016Z,10.40
2018-03-29T18:22:43.216Z,10.40
2018-03-29T18:25:09.460Z,10.30
2018-03-29T18:27:35.661Z,10.30
2018-03-29T18:30:02.629Z,10.10
2018-03-29T18:32:28.835Z,10.00
2018-03-29T18:34:55.054Z,10.00
2018-03-29T18:37:22.062Z,9.70
2018-03-29T18:39:48.315Z,9.70
2018-03-29T18:42:15.277Z,9.50
2018-03-29T18:44:42.213Z,9.40
2018-03-29T18:47:09.213Z,9.50
2018-03-29T18:49:35.430Z,9.40
2018-03-29T18:52:01.700Z,9.50
2018-03-29T18:54:27.921Z,9.50
2018-03-29T18:56:54.175Z,9.40
2018-03-29T18:59:21.253Z,9.30
2018-03-29T19:01:47.476Z,9.20
2018-03-29T19:04:13.681Z,9.20
2018-03-29T19:06:40.760Z,9.10
2018-03-29T19:09:14.048Z,9.00
2018-03-29T19:11:40.244Z,9.00
2018-03-29T19:14:07.195Z,9.00
2018-03-29T19:16:34.168Z,8.90
2018-03-29T19:19:01.455Z,8.90
2018-03-29T19:21:27.712Z,8.90
2018-03-29T19:23:54.662Z,8.80
2018-03-29T19:32:16.684Z,8.80
2018-03-29T19:34:42.994Z,8.80
2018-03-29T19:37:09.269Z,8.80
2018-03-29T19:39:35.541Z,8.80
2018-03-29T19:42:01.819Z,8.70
2018-03-29T19:44:28.787Z,8.70
2018-03-29T19:46:55.069Z,8.60
2018-03-29T19:49:22.383Z,8.60
2018-03-29T19:51:48.809Z,8.50
2018-03-29T19:54:15.103Z,8.40
2018-03-29T19:56:42.131Z,8.30
2018-03-29T19:59:08.458Z,8.30
2018-03-29T20:01:35.520Z,8.30
2018-03-29T20:04:02.560Z,8.10
2018-03-29T20:06:29.833Z,8.10
2018-03-29T20:08:56.072Z,8.10
2018-03-29T20:11:22.370Z,8.00
2018-03-29T20:13:49.365Z,8.10
2018-03-29T20:16:15.624Z,8.00
2018-03-29T20:18:48.332Z,8.10
2018-03-29T20:21:15.360Z,8.10
2018-03-29T20:23:41.740Z,8.00
2018-03-29T20:26:08.077Z,8.00
2018-03-29T20:28:34.347Z,7.90
2018-03-29T20:31:00.636Z,7.90
2018-03-29T20:33:26.908Z,7.80
2018-03-29T20:35:53.207Z,7.70
2018-03-29T20:38:19.487Z,7.70
2018-03-29T20:40:46.496Z,7.40
2018-03-29T20:43:12.812Z,7.40
2018-03-29T20:45:49.740Z,7.30
2018-03-29T20:48:16.780Z,7.10
2018-03-29T20:50:43.044Z,7.00
2018-03-29T20:53:13.363Z,7.10
2018-03-29T20:55:39.816Z,7.10
2018-03-29T20:58:06.092Z,7.20
2018-03-29T21:00:32.336Z,7.10
2018-03-29T21:02:59.419Z,7.10
2018-03-29T21:05:33.783Z,7.10
2018-03-29T21:08:00.100Z,7.10
2018-03-29T21:10:26.472Z,7.10
2018-03-29T21:12:52.704Z,7.20
2018-03-29T21:15:18.984Z,7.20
2018-03-29T21:17:45.252Z,7.30
2018-03-29T21:20:12.257Z,7.20
2018-03-29T21:22:38.527Z,7.20
2018-03-29T21:25:10.368Z,7.20
2018-03-29T21:27:36.600Z,7.20
2018-03-29T21:30:03.603Z,7.20
2018-03-29T21:32:29.937Z,7.20
2018-03-29T21:34:56.204Z,7.00
2018-03-29T21:37:22.518Z,6.70
2018-03-29T21:39:48.911Z,6.40
2018-03-29T21:42:15.116Z,6.50
2018-03-29T21:44:41.367Z,6.50
2018-03-29T21:47:07.639Z,6.60
2018-03-29T21:49:33.979Z,6.70
2018-03-29T21:52:00.263Z,6.70
2018-03-29T21:54:26.548Z,6.60
2018-03-29T21:56:53.572Z,6.60
2018-03-29T21:59:21.901Z,6.60
2018-03-29T22:01:48.171Z,6.70
2018-03-29T22:04:14.428Z,6.70
2018-03-29T22:06:41.495Z,6.40
2018-03-29T22:09:07.903Z,6.40
2018-03-29T22:11:34.965Z,6.20
2018-03-29T22:14:01.248Z,6.20
2018-03-29T22:16:27.523Z,6.20
2018-03-29T22:18:53.804Z,6.50
2018-03-29T22:21:20.019Z,6.40
2018-03-29T22:26:45.627Z,6.30
2018-03-29T22:29:12.125Z,6.40
2018-03-29T22:31:38.368Z,6.50
2018-03-29T22:34:04.751Z,6.60
2018-03-29T22:36:30.998Z,6.60
2018-03-29T22:38:58.014Z,6.50
2018-03-29T22:41:24.343Z,6.50
2018-03-29T22:43:50.625Z,6.60
2018-03-29T22:46:16.941Z,6.60
2018-03-29T22:48:43.965Z,6.70
2018-03-29T22:51:10.221Z,6.70
2018-03-29T22:53:36.467Z,6.70
2018-03-29T22:56:02.745Z,6.70
2018-03-29T22:58:29.032Z,6.70
2018-03-29T23:00:55.356Z,6.70
2018-03-29T23:03:21.613Z,6.70
2018-03-29T23:05:47.892Z,6.70
2018-03-29T23:08:14.145Z,6.70
2018-03-29T23:10:40.404Z,6.70
2018-03-29T23:13:06.713Z,6.80
2018-03-29T23:15:32.950Z,6.80
2018-03-29T23:17:59.249Z,6.80
2018-03-29T23:20:25.559Z,6.70
2018-03-29T23:22:51.875Z,6.80
2018-03-29T23:25:18.909Z,6.70
2018-03-29T23:27:45.160Z,6.70
2018-03-29T23:30:12.149Z,6.70
2018-03-29T23:32:38.439Z,6.60
2018-03-29T23:35:04.753Z,6.70
2018-03-29T23:37:31.048Z,6.60
2018-03-29T23:39:57.338Z,6.60
2018-03-29T23:42:23.629Z,6.60
2018-03-29T23:44:49.880Z,6.60
2018-03-29T23:47:16.934Z,6.60
2018-03-29T23:49:43.955Z,6.60
2018-03-29T23:52:10.226Z,6.50
2018-03-29T23:54:36.525Z,6.50
2018-03-29T23:57:05.473Z,6.50
2018-03-29T23:59:31.745Z,6.50
